Time;durP1;ratioP1;P1;durP2;ratioP2;P2;SDS_P1;SDS_P2;PMS_P1;PMS_P2;Temp;Humidity;BMP_temperature;BMP_pressure;BME280_temperature;BME280_humidity;BME280_pressure;Samples;Min_cycle;Max_cycle;Signal;HPM_P1;HPM_P2
2022/05/30 00:00:42;;;;;;;4.30;3.57;;;14.50;75.10;;;;;;4986244;28;20825;-76
2022/05/30 00:03:08;;;;;;;4.10;3.70;;;14.50;75.50;;;;;;4982508;28;20963;-75
2022/05/30 00:05:34;;;;;;;4.17;3.50;;;14.40;76.00;;;;;;4987410;28;20472;-77
2022/05/30 00:08:00;;;;;;;8.63;3.57;;;14.40;76.40;;;;;;4984255;28;20528;-76
2022/05/30 00:10:27;;;;;;;3.70;3.40;;;14.50;76.70;;;;;;4984198;28;20566;-76
2022/05/30 00:12:53;;;;;;;3.90;3.40;;;14.50;76.80;;;;;;4989369;28;20240;-77
2022/05/30 00:15:21;;;;;;;5.27;3.73;;;14.40;77.50;;;;;;4986400;28;20433;-77
2022/05/30 00:17:47;;;;;;;3.90;3.50;;;14.30;78.00;;;;;;4985138;28;20494;-77
2022/05/30 00:20:13;;;;;;;3.87;3.47;;;14.40;78.10;;;;;;4985432;28;20483;-75
2022/05/30 00:22:42;;;;;;;4.13;3.40;;;14.40;77.70;;;;;;4987104;28;20491;-77
2022/05/30 00:25:08;;;;;;;4.23;3.70;;;14.40;77.70;;;;;;4988533;28;20461;-76
2022/05/30 00:27:34;;;;;;;3.87;3.50;;;14.40;77.10;;;;;;4986899;28;20433;-76
2022/05/30 00:30:00;;;;;;;4.37;3.47;;;14.40;77.80;;;;;;4986255;28;20435;-76
2022/05/30 00:32:25;;;;;;;5.13;3.57;;;14.40;78.20;;;;;;4983660;28;20281;-76
2022/05/30 00:34:51;;;;;;;3.87;3.50;;;14.40;78.20;;;;;;4986355;28;20652;-77
2022/05/30 00:37:17;;;;;;;3.70;3.40;;;14.40;78.20;;;;;;4983434;28;20749;-76
2022/05/30 00:39:43;;;;;;;4.13;3.00;;;14.40;78.40;;;;;;4985500;28;20441;-76
2022/05/30 00:42:17;;;;;;;4.10;3.20;;;14.40;78.50;;;;;;4983281;28;20224;-75
2022/05/30 00:44:45;;;;;;;4.07;3.20;;;14.40;78.80;;;;;;4984352;28;20696;-77
2022/05/30 00:47:12;;;;;;;3.77;3.47;;;14.30;79.00;;;;;;4985768;28;20897;-76
2022/05/30 00:49:40;;;;;;;4.13;3.50;;;14.40;79.10;;;;;;4983034;28;20437;-77
2022/05/30 00:52:08;;;;;;;5.30;2.83;;;14.30;79.40;;;;;;4964822;28;20456;-76
2022/05/30 00:54:42;;;;;;;3.60;3.27;;;14.30;80.20;;;;;;4984726;28;20524;-76
2022/05/30 00:57:21;;;;;;;3.53;3.13;;;14.30;79.50;;;;;;4984184;28;20952;-77
2022/05/30 00:59:54;;;;;;;3.80;3.27;;;14.30;79.90;;;;;;4989778;28;20441;-77
2022/05/30 01:02:23;;;;;;;3.63;3.23;;;14.30;80.30;;;;;;4983030;28;20460;-77
2022/05/30 01:07:36;;;;;;;3.73;3.17;;;14.20;80.80;;;;;;4985798;28;20584;-77
2022/05/30 01:10:03;;;;;;;4.07;3.57;;;14.20;81.20;;;;;;4988798;28;20451;-77
2022/05/30 01:12:45;;;;;;;3.33;3.03;;;14.10;81.40;;;;;;4983043;28;20484;-77
2022/05/30 01:15:13;;;;;;;3.83;3.43;;;14.10;81.90;;;;;;4986002;28;20441;-78
2022/05/30 01:17:55;;;;;;;3.33;3.03;;;14.10;82.10;;;;;;4982185;28;21931;-77
2022/05/30 01:20:53;;;;;;;5.27;3.70;;;14.10;82.10;;;;;;4982164;28;20442;-78
2022/05/30 01:23:43;;;;;;;4.23;3.40;;;14.00;83.50;;;;;;4961695;28;20480;-76
2022/05/30 01:26:27;;;;;;;4.40;3.57;;;14.00;83.20;;;;;;4980722;28;20465;-78
2022/05/30 01:28:58;;;;;;;4.70;3.50;;;13.90;83.60;;;;;;4984273;28;20452;-78
2022/05/30 01:31:25;;;;;;;3.70;3.40;;;13.90;84.10;;;;;;4973905;28;20428;-77
2022/05/30 01:33:51;;;;;;;3.63;3.27;;;13.80;84.30;;;;;;4971459;28;20432;-76
2022/05/30 01:36:22;;;;;;;6.20;3.67;;;13.80;84.80;;;;;;4984633;28;20441;-76
2022/05/30 01:38:47;;;;;;;4.20;3.80;;;13.80;85.20;;;;;;4985877;28;20441;-77
2022/05/30 01:41:13;;;;;;;4.70;3.87;;;13.80;85.40;;;;;;4983167;28;20444;-77
2022/05/30 01:43:39;;;;;;;4.00;3.20;;;13.70;85.70;;;;;;4986310;28;20355;-77
2022/05/30 01:46:10;;;;;;;4.57;3.80;;;13.70;86.10;;;;;;4963374;28;20562;-76
2022/05/30 01:48:36;;;;;;;4.97;4.07;;;13.70;86.20;;;;;;4985145;28;20832;-76
2022/05/30 01:51:02;;;;;;;4.53;3.53;;;13.60;87.40;;;;;;4984583;28;20644;-74
2022/05/30 01:53:28;;;;;;;5.67;3.60;;;13.60;87.70;;;;;;4986231;28;20955;-77
2022/05/30 01:55:54;;;;;;;5.97;4.00;;;13.60;87.50;;;;;;4985238;28;20250;-77
2022/05/30 01:58:20;;;;;;;4.93;3.37;;;13.60;87.70;;;;;;4983848;28;20448;-77
2022/05/30 02:00:46;;;;;;;4.10;3.67;;;13.50;88.10;;;;;;4986861;28;20209;-76
2022/05/30 02:03:12;;;;;;;5.10;4.00;;;13.50;88.70;;;;;;4983501;28;20202;-76
2022/05/30 02:05:37;;;;;;;3.90;3.50;;;13.40;89.00;;;;;;4985060;28;20464;-76
2022/05/30 02:08:03;;;;;;;4.20;3.60;;;13.40;89.20;;;;;;4985148;28;20212;-76
2022/05/30 02:10:30;;;;;;;5.00;3.63;;;13.30;90.00;;;;;;4982417;28;20206;-76
2022/05/30 02:12:56;;;;;;;5.30;4.20;;;13.30;90.10;;;;;;4991948;28;20225;-76
2022/05/30 02:15:22;;;;;;;4.63;3.87;;;13.30;90.40;;;;;;4993371;28;20464;-77
2022/05/30 02:17:47;;;;;;;5.33;4.07;;;13.30;90.40;;;;;;4998509;28;20205;-77
2022/05/30 02:20:13;;;;;;;6.83;4.07;;;13.30;90.40;;;;;;4996894;28;20192;-76
2022/05/30 02:22:39;;;;;;;4.00;3.63;;;13.30;90.60;;;;;;4989720;28;20284;-75
2022/05/30 02:25:05;;;;;;;4.63;4.23;;;13.20;90.70;;;;;;4988102;28;20320;-76
2022/05/30 02:27:31;;;;;;;5.70;3.80;;;13.20;91.00;;;;;;4989425;28;20178;-76
2022/05/30 02:29:57;;;;;;;4.10;3.70;;;13.10;91.10;;;;;;4985798;28;21269;-77
2022/05/30 02:32:23;;;;;;;7.77;3.90;;;13.10;91.20;;;;;;4983923;28;20214;-77
2022/05/30 02:37:36;;;;;;;5.30;4.40;;;13.10;91.60;;;;;;4985770;28;20528;-77
2022/05/30 02:40:02;;;;;;;5.37;3.70;;;13.10;91.80;;;;;;4981268;28;20437;-76
2022/05/30 02:42:28;;;;;;;6.57;3.80;;;13.00;92.00;;;;;;4981861;28;20462;-77
2022/05/30 02:44:53;;;;;;;5.30;4.50;;;13.00;92.30;;;;;;4983890;28;20959;-75
2022/05/30 02:47:19;;;;;;;4.20;3.80;;;13.00;92.60;;;;;;4994440;28;20260;-75
2022/05/30 02:49:44;;;;;;;6.63;4.47;;;12.90;92.80;;;;;;4988483;28;20745;-76
2022/05/30 02:52:10;;;;;;;5.80;4.53;;;12.90;93.00;;;;;;4982111;28;20308;-76
2022/05/30 02:54:36;;;;;;;4.97;4.40;;;13.00;93.20;;;;;;4982038;28;20189;-76
2022/05/30 02:57:01;;;;;;;5.13;4.20;;;12.90;93.40;;;;;;4981684;28;20174;-75
2022/05/30 02:59:28;;;;;;;4.83;4.40;;;12.90;93.70;;;;;;4982843;28;21773;-75
2022/05/30 03:01:54;;;;;;;6.97;3.80;;;12.80;93.90;;;;;;4980738;28;20592;-76
2022/05/30 03:04:20;;;;;;;5.10;4.60;;;12.80;94.30;;;;;;4978289;28;20429;-76
2022/05/30 03:06:46;;;;;;;8.00;4.63;;;12.80;94.60;;;;;;4979826;28;20483;-75
2022/05/30 03:09:13;;;;;;;5.90;4.50;;;12.80;94.80;;;;;;4979792;28;20440;-75
2022/05/30 03:11:39;;;;;;;5.77;4.80;;;12.70;95.00;;;;;;4980832;28;20456;-74
2022/05/30 03:14:04;;;;;;;4.63;3.83;;;12.80;95.30;;;;;;4977608;28;20574;-75
2022/05/30 03:16:31;;;;;;;5.40;4.87;;;12.70;95.50;;;;;;4980894;28;20273;-75
2022/05/30 03:18:56;;;;;;;4.07;3.77;;;12.70;95.70;;;;;;4984653;28;20564;-74
2022/05/30 03:21:22;;;;;;;5.17;4.13;;;12.70;95.90;;;;;;4963939;28;20452;-75
2022/05/30 03:23:48;;;;;;;4.53;4.13;;;12.70;96.30;;;;;;4980224;28;20215;-75
2022/05/30 03:26:16;;;;;;;6.00;4.53;;;12.70;96.40;;;;;;4980044;28;20528;-75
2022/05/30 03:28:42;;;;;;;5.07;4.57;;;12.70;96.60;;;;;;4973446;28;20175;-74
2022/05/30 03:31:08;;;;;;;8.20;4.10;;;12.70;96.80;;;;;;4976778;28;20443;-74
2022/05/30 03:33:47;;;;;;;4.47;4.07;;;12.60;97.00;;;;;;4979638;28;20554;-74
2022/05/30 03:36:16;;;;;;;5.43;4.57;;;12.60;97.10;;;;;;4980150;28;20438;-75
2022/05/30 03:38:42;;;;;;;5.90;4.60;;;12.50;97.10;;;;;;4982627;28;20801;-75
2022/05/30 03:41:08;;;;;;;5.87;4.00;;;12.50;97.20;;;;;;4979177;28;20445;-75
2022/05/30 03:43:34;;;;;;;5.20;3.90;;;12.60;97.20;;;;;;4979614;28;20463;-74
2022/05/30 03:46:00;;;;;;;5.03;3.90;;;12.50;97.10;;;;;;4978014;28;20202;-73
2022/05/30 03:48:26;;;;;;;4.43;3.80;;;12.50;97.10;;;;;;4979043;28;22782;-74
2022/05/30 03:50:51;;;;;;;4.10;3.70;;;12.50;97.20;;;;;;4978681;28;20459;-75
2022/05/30 03:53:17;;;;;;;7.60;4.30;;;12.50;97.30;;;;;;4981451;28;20194;-74
2022/05/30 03:55:47;;;;;;;4.47;3.57;;;12.40;97.40;;;;;;4980638;28;20194;-75
2022/05/30 03:58:14;;;;;;;4.90;4.30;;;12.40;97.60;;;;;;4980443;28;20598;-72
2022/05/30 04:00:41;;;;;;;4.10;3.70;;;12.40;97.60;;;;;;4983037;28;20456;-75
2022/05/30 04:03:07;;;;;;;5.70;3.80;;;12.40;97.70;;;;;;4982999;28;20475;-74
2022/05/30 04:05:33;;;;;;;4.57;4.03;;;12.40;97.80;;;;;;4982115;28;20583;-75
2022/05/30 04:07:59;;;;;;;4.50;3.80;;;12.30;97.80;;;;;;4985566;28;20551;-75
2022/05/30 04:10:25;;;;;;;6.30;4.20;;;12.40;97.90;;;;;;4983165;28;20186;-74
2022/05/30 04:12:57;;;;;;;5.80;3.90;;;12.40;97.90;;;;;;4981579;28;20230;-75
2022/05/30 04:15:23;;;;;;;7.50;4.00;;;12.30;97.90;;;;;;4984496;28;21139;-74
2022/05/30 04:17:49;;;;;;;7.27;4.00;;;12.30;97.90;;;;;;4984030;28;20556;-75
2022/05/30 04:20:15;;;;;;;4.53;3.77;;;12.30;98.00;;;;;;4982738;28;20178;-74
2022/05/30 04:22:41;;;;;;;5.40;3.63;;;12.30;98.00;;;;;;4982433;28;20460;-74
2022/05/30 04:25:11;;;;;;;5.57;3.50;;;12.20;98.60;;;;;;4966285;28;21063;-74
2022/05/30 04:27:36;;;;;;;5.20;3.90;;;12.20;98.50;;;;;;4982179;28;20185;-73
2022/05/30 04:30:04;;;;;;;4.30;3.90;;;12.20;99.30;;;;;;4983996;28;20437;-73
2022/05/30 04:32:30;;;;;;;4.40;3.97;;;12.20;99.10;;;;;;4962602;28;20855;-73
2022/05/30 04:34:56;;;;;;;4.60;4.20;;;12.20;99.20;;;;;;4981335;28;20438;-75
2022/05/30 04:37:22;;;;;;;5.03;3.93;;;12.30;99.30;;;;;;4984598;28;20193;-75
2022/05/30 04:39:47;;;;;;;5.30;4.47;;;12.20;99.60;;;;;;4986239;28;20184;-76
2022/05/30 04:42:13;;;;;;;4.30;3.77;;;12.30;99.80;;;;;;4985653;28;20213;-76
2022/05/30 04:44:38;;;;;;;5.57;4.20;;;12.30;99.90;;;;;;4989100;28;20182;-76
2022/05/30 04:47:06;;;;;;;4.33;3.80;;;12.20;99.90;;;;;;4986224;28;20424;-77
2022/05/30 04:49:31;;;;;;;5.50;4.00;;;12.20;99.90;;;;;;4982938;28;20170;-76
2022/05/30 04:51:57;;;;;;;5.73;4.87;;;12.20;99.90;;;;;;4968382;28;20487;-75
2022/05/30 04:54:24;;;;;;;8.23;4.77;;;12.30;99.90;;;;;;4982244;28;20219;-75
2022/05/30 04:56:50;;;;;;;4.50;4.10;;;12.30;99.90;;;;;;4982472;28;20445;-76
2022/05/30 04:59:16;;;;;;;5.63;4.47;;;12.40;99.90;;;;;;4982295;28;20448;-76
2022/05/30 05:01:42;;;;;;;6.90;4.90;;;12.30;99.90;;;;;;4982579;28;20210;-75
2022/05/30 05:04:11;;;;;;;4.83;4.33;;;12.30;99.90;;;;;;4982833;28;20566;-76
2022/05/30 05:06:37;;;;;;;5.20;4.70;;;12.30;99.90;;;;;;4984208;28;21510;-75
2022/05/30 05:09:15;;;;;;;6.83;4.60;;;12.30;99.90;;;;;;4981492;28;20716;-75
2022/05/30 05:11:41;;;;;;;7.10;6.20;;;12.30;99.90;;;;;;4981729;28;20614;-76
2022/05/30 05:14:07;;;;;;;6.97;4.60;;;12.20;99.90;;;;;;4982656;28;20770;-73
2022/05/30 05:16:33;;;;;;;5.43;4.70;;;12.20;99.90;;;;;;4964436;28;20440;-75
2022/05/30 05:19:00;;;;;;;5.63;5.00;;;12.30;99.90;;;;;;4981581;28;20185;-76
2022/05/30 05:21:32;;;;;;;5.70;5.10;;;12.30;99.90;;;;;;4980559;28;20806;-72
2022/05/30 05:23:58;;;;;;;5.80;5.20;;;12.30;99.90;;;;;;4984614;28;20437;-74
2022/05/30 05:26:25;;;;;;;5.97;5.23;;;12.30;99.90;;;;;;4980063;28;20473;-75
2022/05/30 05:28:51;;;;;;;5.27;4.77;;;12.30;99.90;;;;;;4983217;28;20480;-75
2022/05/30 05:31:27;;;;;;;6.97;5.00;;;12.30;99.90;;;;;;4986968;28;20445;-76
2022/05/30 05:33:54;;;;;;;6.40;5.10;;;12.10;99.90;;;;;;4986459;28;20444;-77
2022/05/30 05:36:27;;;;;;;8.23;5.60;;;12.10;99.90;;;;;;4987192;28;20448;-76
2022/05/30 05:38:53;;;;;;;6.77;5.50;;;12.20;99.90;;;;;;4985909;28;20499;-74
2022/05/30 05:41:20;;;;;;;6.00;5.40;;;12.20;99.90;;;;;;4985582;28;20449;-74
2022/05/30 05:43:46;;;;;;;7.70;5.73;;;12.30;99.90;;;;;;4988731;28;20220;-73
2022/05/30 05:46:14;;;;;;;5.60;5.00;;;12.30;99.90;;;;;;4983790;28;20746;-76
2022/05/30 05:48:39;;;;;;;6.83;5.67;;;12.40;99.90;;;;;;4983370;28;20174;-74
2022/05/30 05:51:05;;;;;;;8.47;5.87;;;12.50;99.90;;;;;;4989757;28;20429;-76
2022/05/30 05:53:31;;;;;;;5.70;5.13;;;12.50;99.90;;;;;;4986903;28;20202;-76
2022/05/30 05:55:57;;;;;;;11.47;4.63;;;12.60;99.90;;;;;;4967249;28;20185;-76
2022/05/30 05:58:23;;;;;;;7.37;5.47;;;12.60;99.90;;;;;;4967174;28;20186;-76
2022/05/30 06:00:49;;;;;;;7.07;5.20;;;12.60;99.90;;;;;;4985257;28;20444;-74
2022/05/30 06:03:14;;;;;;;7.90;4.63;;;12.70;99.90;;;;;;4980004;28;20229;-75
2022/05/30 06:05:40;;;;;;;8.83;5.10;;;12.70;99.90;;;;;;4961436;28;20208;-74
2022/05/30 06:08:06;;;;;;;6.07;5.13;;;12.70;99.90;;;;;;4983372;28;20654;-74
2022/05/30 06:11:04;;;;;;;6.70;4.27;;;12.80;99.90;;;;;;4981642;28;20822;-74
2022/05/30 06:13:18;;;;;;;6.60;5.03;;;12.90;99.90;;;;;;4986061;28;20547;-74
2022/05/30 06:15:44;;;;;;;5.43;4.93;;;12.90;99.90;;;;;;4983148;28;20532;-75
2022/05/30 06:18:10;;;;;;;5.70;4.50;;;13.00;99.90;;;;;;4983649;28;20194;-76
2022/05/30 06:20:35;;;;;;;10.03;4.60;;;13.00;99.90;;;;;;4984128;28;20178;-74
2022/05/30 06:23:01;;;;;;;6.90;5.07;;;13.00;99.90;;;;;;4975388;28;20308;-75
2022/05/30 06:25:27;;;;;;;6.93;6.23;;;13.00;99.90;;;;;;4985314;28;20214;-75
2022/05/30 06:27:52;;;;;;;7.60;5.73;;;13.10;99.90;;;;;;4984249;28;20261;-74
2022/05/30 06:30:18;;;;;;;6.17;5.30;;;13.10;99.90;;;;;;4985723;28;20321;-75
2022/05/30 06:32:43;;;;;;;7.03;5.60;;;13.10;99.90;;;;;;4983819;28;20194;-74
2022/05/30 06:35:09;;;;;;;5.50;4.80;;;13.20;99.90;;;;;;4984185;28;20181;-74
2022/05/30 06:37:35;;;;;;;5.13;4.60;;;13.30;99.90;;;;;;4983055;28;20926;-76
2022/05/30 06:40:00;;;;;;;5.77;4.50;;;13.40;99.90;;;;;;4989055;28;20221;-76
2022/05/30 06:42:26;;;;;;;5.00;4.40;;;13.30;99.90;;;;;;4983000;28;20214;-76
2022/05/30 06:44:52;;;;;;;4.67;4.00;;;13.40;99.90;;;;;;4984978;28;20208;-75
2022/05/30 06:47:17;;;;;;;5.57;4.67;;;13.50;99.90;;;;;;4985940;28;20562;-74
2022/05/30 06:49:43;;;;;;;4.90;4.40;;;13.60;99.90;;;;;;4984596;28;20733;-77
2022/05/30 06:52:09;;;;;;;4.30;3.90;;;13.60;99.90;;;;;;4984731;28;20212;-75
2022/05/30 06:54:35;;;;;;;6.80;5.00;;;13.60;99.90;;;;;;4983053;28;20177;-76
2022/05/30 06:59:45;;;;;;;5.70;4.03;;;13.60;99.90;;;;;;4982831;28;20528;-75
2022/05/30 07:02:10;;;;;;;5.73;4.10;;;13.70;99.90;;;;;;4972811;28;20547;-75
2022/05/30 07:04:36;;;;;;;6.30;4.13;;;13.60;99.90;;;;;;4983102;28;20186;-73
2022/05/30 07:07:04;;;;;;;5.70;4.23;;;13.70;99.90;;;;;;4983091;28;20725;-75
2022/05/30 07:09:30;;;;;;;6.00;4.00;;;13.90;99.90;;;;;;4983484;28;20704;-74
2022/05/30 07:11:56;;;;;;;5.93;5.10;;;14.10;99.90;;;;;;4983115;28;20837;-75
2022/05/30 07:14:22;;;;;;;4.40;3.83;;;14.10;99.90;;;;;;4983934;28;20441;-75
2022/05/30 07:16:48;;;;;;;4.80;4.23;;;14.20;99.90;;;;;;4988464;28;20186;-74
2022/05/30 07:19:13;;;;;;;5.70;4.50;;;14.30;99.90;;;;;;4982052;28;20232;-73
2022/05/30 07:21:41;;;;;;;3.90;3.60;;;14.40;99.90;;;;;;4982676;28;20464;-75
2022/05/30 07:24:07;;;;;;;6.13;4.00;;;14.50;99.90;;;;;;4980006;28;20285;-74
2022/05/30 07:26:33;;;;;;;4.73;4.00;;;14.50;99.90;;;;;;4980839;28;21881;-74
2022/05/30 07:28:58;;;;;;;4.37;3.40;;;14.60;99.90;;;;;;4983480;28;20621;-74
2022/05/30 07:31:25;;;;;;;3.43;3.13;;;14.70;99.90;;;;;;4985775;28;20186;-74
2022/05/30 07:33:51;;;;;;;5.97;4.47;;;14.70;99.90;;;;;;4987236;28;20185;-74
2022/05/30 07:36:28;;;;;;;4.50;3.57;;;14.70;99.90;;;;;;4989900;28;20432;-74
2022/05/30 07:38:55;;;;;;;4.83;3.93;;;14.80;99.90;;;;;;4987106;28;20515;-74
2022/05/30 07:41:22;;;;;;;6.87;3.97;;;15.00;99.90;;;;;;4987492;28;20455;-74
2022/05/30 07:43:48;;;;;;;4.60;3.60;;;15.00;99.90;;;;;;4987047;28;20520;-75
2022/05/30 07:46:16;;;;;;;4.03;3.63;;;15.10;99.90;;;;;;4987878;28;20556;-75
2022/05/30 07:48:42;;;;;;;7.33;3.87;;;15.10;99.90;;;;;;4986064;28;20658;-75
2022/05/30 07:51:10;;;;;;;3.53;3.07;;;15.10;99.90;;;;;;4989515;28;21107;-74
2022/05/30 07:53:37;;;;;;;4.00;3.27;;;15.20;99.90;;;;;;4986578;28;20477;-74
2022/05/30 07:56:11;;;;;;;4.80;3.60;;;15.30;99.90;;;;;;4985055;28;20432;-76
2022/05/30 07:58:37;;;;;;;4.70;3.60;;;15.30;99.90;;;;;;4988492;28;20435;-76
2022/05/30 08:01:04;;;;;;;7.23;3.60;;;15.30;99.90;;;;;;4989179;28;20514;-74
2022/05/30 08:03:30;;;;;;;4.40;3.30;;;15.30;99.90;;;;;;4968620;28;20210;-75
2022/05/30 08:06:14;;;;;;;4.93;3.13;;;15.40;99.90;;;;;;4988727;28;20515;-74
2022/05/30 08:08:41;;;;;;;6.43;3.70;;;15.50;99.60;;;;;;4987043;28;20533;-75
2022/05/30 08:11:07;;;;;;;3.90;3.03;;;15.60;99.40;;;;;;4966424;28;20432;-74
2022/05/30 08:13:33;;;;;;;9.80;6.27;;;15.60;99.00;;;;;;4986930;28;20510;-74
2022/05/30 08:16:00;;;;;;;4.50;4.10;;;15.60;98.90;;;;;;4992827;28;20185;-74
2022/05/30 08:18:26;;;;;;;5.17;4.23;;;15.60;98.90;;;;;;4985472;28;20440;-74
2022/05/30 08:20:54;;;;;;;5.70;5.10;;;15.60;98.90;;;;;;4987543;28;20417;-73
2022/05/30 08:23:20;;;;;;;5.93;4.07;;;15.80;98.60;;;;;;4990363;28;20457;-74
2022/05/30 08:25:47;;;;;;;4.83;3.70;;;15.80;98.90;;;;;;4986933;28;20901;-74
2022/05/30 08:28:13;;;;;;;3.97;3.23;;;15.80;98.50;;;;;;4986322;28;20177;-73
2022/05/30 08:30:39;;;;;;;3.97;3.30;;;15.90;97.30;;;;;;4990800;28;20428;-72
2022/05/30 08:33:14;;;;;;;4.23;3.43;;;16.00;96.50;;;;;;4973671;28;20451;-74
2022/05/30 08:35:39;;;;;;;3.07;2.60;;;16.10;95.90;;;;;;4989257;28;20554;-74
2022/05/30 08:38:05;;;;;;;3.47;3.17;;;16.20;95.50;;;;;;4985172;28;20436;-73
2022/05/30 08:43:34;;;;;;;3.20;2.90;;;16.30;94.60;;;;;;4970964;28;20452;-74
2022/05/30 08:46:18;;;;;;;5.07;3.63;;;16.30;93.70;;;;;;4985038;28;20463;-73
2022/05/30 08:49:02;;;;;;;4.73;3.20;;;16.30;94.20;;;;;;4987434;28;20440;-74
2022/05/30 08:51:58;;;;;;;3.23;2.90;;;16.30;94.50;;;;;;4990770;28;20434;-75
2022/05/30 08:55:08;;;;;;;3.20;2.80;;;16.40;94.20;;;;;;4986282;28;20482;-75
2022/05/30 08:58:10;;;;;;;5.53;2.70;;;16.50;93.30;;;;;;4971921;28;20429;-73
2022/05/30 09:00:38;;;;;;;5.50;3.10;;;16.60;93.20;;;;;;4984943;28;20449;-74
2022/05/30 09:03:12;;;;;;;4.33;3.07;;;16.70;92.80;;;;;;4988166;28;20858;-74
2022/05/30 09:05:52;;;;;;;6.53;4.47;;;16.80;92.30;;;;;;4986065;28;20461;-73
2022/05/30 09:08:41;;;;;;;6.60;4.00;;;16.80;92.40;;;;;;4983819;28;20432;-75
2022/05/30 09:11:29;;;;;;;3.63;3.33;;;16.80;91.60;;;;;;4968657;28;20447;-75
2022/05/30 09:13:58;;;;;;;3.50;3.10;;;16.70;91.40;;;;;;4989394;28;20455;-73
2022/05/30 09:16:37;;;;;;;5.40;4.43;;;16.80;91.50;;;;;;4987237;28;20444;-74
2022/05/30 09:19:07;;;;;;;4.67;3.63;;;17.00;90.70;;;;;;4986212;28;20441;-74
2022/05/30 09:21:33;;;;;;;3.60;2.77;;;17.20;90.00;;;;;;4987145;28;20536;-75
2022/05/30 09:23:59;;;;;;;3.57;3.27;;;17.20;89.40;;;;;;4989728;28;20460;-74
2022/05/30 09:26:35;;;;;;;7.10;3.70;;;17.10;85.80;;;;;;4985058;28;20194;-75
2022/05/30 09:29:04;;;;;;;5.60;3.13;;;17.10;87.30;;;;;;4985492;28;20434;-76
2022/05/30 09:31:39;;;;;;;3.00;2.70;;;17.20;87.80;;;;;;4987394;28;20425;-75
2022/05/30 09:34:33;;;;;;;3.30;2.90;;;17.40;88.10;;;;;;4966109;28;20425;-77
2022/05/30 09:36:59;;;;;;;4.60;3.30;;;17.50;86.60;;;;;;4966660;28;20436;-75
2022/05/30 09:39:25;;;;;;;3.87;2.80;;;17.50;86.40;;;;;;4987811;28;20508;-75
2022/05/30 09:41:57;;;;;;;3.43;2.90;;;17.40;85.10;;;;;;4985525;28;20709;-76
2022/05/30 09:44:41;;;;;;;6.90;3.13;;;17.60;83.10;;;;;;4984377;28;20277;-77
2022/05/30 09:47:15;;;;;;;5.53;3.10;;;17.60;82.00;;;;;;4984858;28;21134;-75
2022/05/30 09:49:47;;;;;;;3.63;2.93;;;17.70;81.20;;;;;;4981749;28;20660;-75
2022/05/30 09:52:30;;;;;;;6.33;3.17;;;17.70;82.60;;;;;;4987714;28;21290;-76
2022/05/30 09:54:56;;;;;;;3.50;3.10;;;17.90;82.90;;;;;;4990105;28;21075;-75
2022/05/30 09:57:40;;;;;;;4.13;3.07;;;18.00;82.00;;;;;;4985403;28;20446;-75
2022/05/30 10:00:08;;;;;;;5.90;3.23;;;17.90;78.30;;;;;;4961172;28;20523;-74
2022/05/30 10:02:37;;;;;;;4.20;3.00;;;18.10;79.90;;;;;;4987683;28;20471;-75
2022/05/30 10:05:15;;;;;;;4.30;3.23;;;18.20;78.80;;;;;;4987327;28;20555;-75
2022/05/30 10:07:52;;;;;;;4.37;3.67;;;18.40;78.30;;;;;;4987330;28;20432;-75
2022/05/30 10:10:25;;;;;;;4.80;3.27;;;18.60;77.00;;;;;;4985247;28;20421;-75
2022/05/30 10:13:35;;;;;;;5.90;4.40;;;18.70;76.30;;;;;;4985956;28;20443;-74
2022/05/30 10:16:04;;;;;;;4.00;2.60;;;18.80;76.40;;;;;;4982574;28;20529;-75
2022/05/30 10:18:43;;;;;;;3.13;2.83;;;19.00;75.30;;;;;;4981300;28;20817;-76
2022/05/30 10:30:49;;;;;;;3.93;3.20;;;19.40;73.20;;;;;;4982945;28;20992;-74
2022/05/30 10:33:26;;;;;;;4.63;3.50;;;19.20;73.20;;;;;;4982320;28;20483;-74
2022/05/30 10:35:58;;;;;;;3.40;3.10;;;19.20;73.50;;;;;;4964334;28;20512;-76
2022/05/30 10:38:41;;;;;;;3.50;2.97;;;19.30;73.20;;;;;;4981762;28;20520;-76
2022/05/30 10:41:29;;;;;;;4.27;2.93;;;19.30;71.10;;;;;;4984049;28;20433;-75
2022/05/30 10:44:29;;;;;;;3.60;2.47;;;19.10;70.40;;;;;;4985960;28;20471;-75
2022/05/30 10:47:15;;;;;;;3.73;3.00;;;19.10;71.10;;;;;;4981801;28;20547;-75
2022/05/30 10:49:46;;;;;;;6.03;3.30;;;19.00;71.10;;;;;;4985289;28;20467;-75
2022/05/30 10:52:17;;;;;;;4.33;3.40;;;19.00;72.10;;;;;;4983302;28;20547;-76
2022/05/30 10:54:54;;;;;;;11.63;3.30;;;19.00;71.30;;;;;;4983142;28;21144;-75
2022/05/30 10:57:25;;;;;;;4.90;3.20;;;18.90;71.40;;;;;;4982510;28;20440;-74
2022/05/30 11:00:07;;;;;;;7.90;2.93;;;19.00;72.20;;;;;;4981522;28;20524;-72
2022/05/30 11:03:15;;;;;;;3.37;3.07;;;19.00;73.80;;;;;;4965362;28;20575;-74
2022/05/30 11:05:59;;;;;;;3.50;2.90;;;19.00;69.40;;;;;;4982998;28;20519;-74
2022/05/30 11:08:42;;;;;;;3.10;2.80;;;19.10;71.10;;;;;;4965320;28;21019;-75
2022/05/30 11:11:16;;;;;;;3.80;2.90;;;19.30;71.30;;;;;;4990249;28;20460;-73
2022/05/30 11:13:50;;;;;;;3.30;2.80;;;19.50;69.70;;;;;;4981227;28;20954;-74
2022/05/30 11:16:28;;;;;;;5.40;4.20;;;19.70;69.00;;;;;;4963588;28;20490;-74
2022/05/30 11:19:21;;;;;;;13.00;11.63;;;19.90;69.40;;;;;;4984800;28;20530;-74
2022/05/30 11:22:14;;;;;;;5.70;3.50;;;20.20;69.10;;;;;;4980156;28;20527;-74
2022/05/30 11:24:40;;;;;;;6.37;5.77;;;20.40;66.90;;;;;;4985542;28;20782;-74
2022/05/30 11:27:39;;;;;;;3.10;2.80;;;20.70;64.60;;;;;;4976082;28;20559;-74
2022/05/30 11:30:35;;;;;;;3.77;2.70;;;20.80;63.00;;;;;;4981719;28;20437;-72
2022/05/30 11:33:23;;;;;;;4.30;3.07;;;20.70;60.30;;;;;;4979357;28;20459;-73
2022/05/30 11:35:57;;;;;;;4.53;3.37;;;21.00;60.50;;;;;;4979721;28;20449;-73
2022/05/30 11:38:41;;;;;;;3.17;2.87;;;21.00;60.80;;;;;;4980656;28;20821;-74
2022/05/30 11:41:36;;;;;;;3.87;2.63;;;21.10;59.40;;;;;;4981122;28;20512;-75
2022/05/30 11:44:31;;;;;;;4.20;3.43;;;21.20;58.90;;;;;;4955221;28;21211;-74
2022/05/30 11:47:28;;;;;;;6.73;3.30;;;21.20;57.80;;;;;;4980663;28;20541;-76
2022/05/30 11:50:18;;;;;;;3.90;2.70;;;21.10;58.10;;;;;;4980836;28;20487;-76
2022/05/30 11:53:02;;;;;;;3.10;2.80;;;21.00;57.20;;;;;;4981651;28;20815;-76
2022/05/30 11:55:51;;;;;;;4.73;3.20;;;21.00;58.10;;;;;;4981828;28;20445;-76
2022/05/30 11:58:42;;;;;;;4.13;3.80;;;21.30;57.40;;;;;;4980633;28;20429;-74
2022/05/30 12:01:09;;;;;;;4.13;2.80;;;21.90;57.60;;;;;;4981623;28;21156;-73
2022/05/30 12:04:02;;;;;;;3.50;2.70;;;23.40;55.60;;;;;;4981288;28;20981;-75
2022/05/30 12:06:43;;;;;;;5.67;4.90;;;25.20;54.10;;;;;;4982425;28;20971;-75
2022/05/30 12:09:15;;;;;;;3.10;2.80;;;25.60;51.90;;;;;;4984102;28;20497;-74
2022/05/30 12:12:27;;;;;;;2.87;2.60;;;26.80;48.00;;;;;;4985925;28;21216;-74
2022/05/30 12:15:03;;;;;;;3.90;3.30;;;29.00;46.10;;;;;;4900882;29;20483;-76
2022/05/30 12:23:48;;;;;;;2.80;2.60;;;30.00;43.70;;;;;;4903661;29;20463;-77
2022/05/30 12:23:50;;;;;;;3.00;2.70;;;31.90;40.70;;;;;;4984701;28;20435;-74
2022/05/30 12:26:55;;;;;;;3.43;2.80;;;32.50;35.90;;;;;;4986752;28;20802;-75
2022/05/30 12:29:29;;;;;;;3.23;2.93;;;33.50;35.70;;;;;;4992640;28;20424;-74
2022/05/30 12:32:11;;;;;;;2.90;2.40;;;34.40;34.60;;;;;;4985308;28;21058;-75
2022/05/30 12:35:05;;;;;;;3.20;2.63;;;34.90;32.50;;;;;;4984773;28;20938;-75
2022/05/30 12:37:51;;;;;;;3.30;3.00;;;35.20;31.90;;;;;;4990389;28;20787;-75
2022/05/30 12:40:26;;;;;;;3.20;2.57;;;35.90;31.00;;;;;;4985521;28;20428;-75
2022/05/30 12:43:14;;;;;;;3.27;2.80;;;34.40;29.80;;;;;;4986450;28;20427;-74
2022/05/30 12:45:46;;;;;;;4.20;2.40;;;32.50;30.70;;;;;;4984245;28;20987;-75
2022/05/30 12:48:24;;;;;;;5.33;4.33;;;31.10;32.10;;;;;;4989002;28;20488;-75
2022/05/30 12:50:50;;;;;;;5.43;2.80;;;30.90;34.30;;;;;;4984009;28;20486;-75
2022/05/30 12:53:16;;;;;;;3.40;3.03;;;32.10;34.50;;;;;;4989887;28;20486;-75
2022/05/30 12:55:45;;;;;;;3.50;3.00;;;33.50;33.60;;;;;;4989302;28;20200;-73
2022/05/30 12:58:34;;;;;;;3.17;2.87;;;34.00;31.80;;;;;;4964432;28;20468;-75
2022/05/30 13:01:20;;;;;;;3.60;2.50;;;32.60;31.50;;;;;;4947161;28;20427;-74
2022/05/30 13:04:29;;;;;;;3.20;2.90;;;31.80;32.20;;;;;;4986476;28;20521;-76
2022/05/30 13:07:15;;;;;;;2.57;2.37;;;32.70;32.20;;;;;;4983900;28;20534;-75
2022/05/30 13:09:48;;;;;;;3.23;2.80;;;33.20;31.50;;;;;;4984279;28;20424;-75
2022/05/30 13:12:22;;;;;;;3.03;2.50;;;33.20;31.70;;;;;;4969078;28;20556;-75
2022/05/30 13:15:00;;;;;;;2.50;2.10;;;33.20;30.70;;;;;;4987398;28;20519;-74
2022/05/30 13:17:53;;;;;;;3.70;2.83;;;31.40;31.10;;;;;;4985079;28;20435;-74
2022/05/30 13:20:42;;;;;;;3.30;2.53;;;30.60;32.10;;;;;;4986357;28;20440;-75
2022/05/30 13:23:08;;;;;;;2.73;2.53;;;29.50;33.40;;;;;;4984314;28;20525;-77
2022/05/30 13:25:33;;;;;;;3.60;2.57;;;28.70;33.50;;;;;;4986425;28;20532;-76
2022/05/30 13:28:04;;;;;;;3.30;2.87;;;28.50;33.80;;;;;;4963058;28;20485;-73
2022/05/30 13:30:30;;;;;;;3.60;2.80;;;28.50;34.00;;;;;;4986239;28;20179;-74
2022/05/30 13:32:56;;;;;;;2.90;2.70;;;27.80;34.50;;;;;;4964161;28;20454;-74